createdAt,value
2022-09-02T00:00:38.456Z,7.03
2022-09-02T00:03:05.116Z,8.18
2022-09-02T00:05:31.804Z,10.23
2022-09-02T00:07:58.354Z,7.43
2022-09-02T00:10:25.123Z,5.32
2022-09-02T00:12:51.681Z,8.13
2022-09-02T00:15:18.773Z,8.30
2022-09-02T00:17:48.603Z,6.25
2022-09-02T00:20:15.607Z,5.65
2022-09-02T00:22:42.172Z,5.07
2022-09-02T00:25:09.735Z,7.25
2022-09-02T00:27:36.543Z,8.88
2022-09-02T00:30:03.895Z,4.70
2022-09-02T00:32:30.830Z,5.55
2022-09-02T00:34:58.853Z,5.13
2022-09-02T00:37:26.475Z,7.32
2022-09-02T00:39:53.640Z,8.15
2022-09-02T00:42:21.189Z,6.88
2022-09-02T00:44:48.223Z,5.47
2022-09-02T00:47:15.801Z,5.00
2022-09-02T00:49:45.224Z,6.15
2022-09-02T00:52:14.577Z,3.92
2022-09-02T00:54:49.639Z,4.75
2022-09-02T00:57:19.628Z,5.55
2022-09-02T00:59:49.139Z,4.38
2022-09-02T01:02:15.844Z,3.53
2022-09-02T01:04:46.803Z,6.47
2022-09-02T01:07:14.711Z,4.13
2022-09-02T01:09:41.544Z,4.97
2022-09-02T01:12:08.799Z,5.07
2022-09-02T01:14:35.507Z,3.53
2022-09-02T01:17:03.342Z,3.92
2022-09-02T01:19:34.983Z,3.63
2022-09-02T01:22:01.839Z,5.82
2022-09-02T01:24:30.909Z,5.28
2022-09-02T01:26:58.526Z,3.35
2022-09-02T01:29:25.939Z,7.05
2022-09-02T01:31:52.941Z,3.95
2022-09-02T01:34:20.132Z,3.88
2022-09-02T01:36:47.262Z,5.95
2022-09-02T01:39:14.081Z,3.75
2022-09-02T01:41:41.016Z,4.72
2022-09-02T01:44:08.010Z,4.97
2022-09-02T01:46:35.334Z,6.70
2022-09-02T01:49:02.696Z,3.53
2022-09-02T01:51:29.238Z,6.88
2022-09-02T01:53:56.035Z,5.43
2022-09-02T01:56:22.612Z,4.80
2022-09-02T01:58:51.614Z,4.25
2022-09-02T02:01:20.055Z,3.90
2022-09-02T02:03:47.653Z,4.57
2022-09-02T02:06:16.936Z,4.63
2022-09-02T02:08:44.654Z,5.43
2022-09-02T02:11:11.294Z,4.60
2022-09-02T02:13:40.384Z,4.10
2022-09-02T02:16:07.098Z,6.72
2022-09-02T02:18:33.858Z,4.10
2022-09-02T02:21:00.584Z,7.43
2022-09-02T02:23:27.236Z,4.35
2022-09-02T02:25:53.816Z,5.35
2022-09-02T02:28:20.436Z,3.38
2022-09-02T02:30:47.755Z,6.97
2022-09-02T02:33:14.818Z,3.65
2022-09-02T02:35:42.323Z,6.90
2022-09-02T02:38:10.252Z,3.92
2022-09-02T02:40:41.236Z,3.75
2022-09-02T02:43:08.639Z,2.78
2022-09-02T02:45:35.240Z,3.97
2022-09-02T02:48:03.049Z,4.15
2022-09-02T02:50:33.547Z,4.63
2022-09-02T02:53:02.716Z,5.10
2022-09-02T02:55:29.793Z,2.92
2022-09-02T02:57:57.036Z,3.67
2022-09-02T03:00:25.303Z,3.25
2022-09-02T03:02:58.290Z,3.92
2022-09-02T03:05:25.630Z,3.15
2022-09-02T03:07:52.328Z,6.30
2022-09-02T03:10:19.531Z,3.45
2022-09-02T03:12:47.635Z,5.90
2022-09-02T03:15:18.340Z,4.32
2022-09-02T03:17:49.373Z,5.00
2022-09-02T03:20:17.294Z,4.45
2022-09-02T03:22:49.815Z,7.15
2022-09-02T03:25:18.624Z,3.83
2022-09-02T03:27:46.166Z,3.72
2022-09-02T03:30:18.845Z,2.72
2022-09-02T03:32:45.671Z,2.20
2022-09-02T03:35:15.613Z,5.65
2022-09-02T03:37:45.705Z,3.80
2022-09-02T03:40:14.858Z,7.38
2022-09-02T03:42:42.293Z,3.92
2022-09-02T03:45:11.162Z,3.83
2022-09-02T03:47:40.519Z,5.63
2022-09-02T03:50:07.198Z,4.95
2022-09-02T03:52:37.141Z,2.75
2022-09-02T03:55:05.188Z,4.65
2022-09-02T03:57:35.355Z,5.35
2022-09-02T04:00:02.578Z,4.65
2022-09-02T04:02:30.536Z,4.88
2022-09-02T04:04:57.182Z,3.13
2022-09-02T04:07:26.985Z,4.70
2022-09-02T04:09:56.420Z,4.20
2022-09-02T04:12:23.092Z,4.35
2022-09-02T04:14:50.343Z,4.65
2022-09-02T04:17:21.642Z,4.03
2022-09-02T04:19:48.235Z,4.55
2022-09-02T04:22:14.883Z,3.97
2022-09-02T04:24:41.487Z,2.65
2022-09-02T04:27:10.446Z,3.65
2022-09-02T04:29:37.109Z,7.15
2022-09-02T04:32:04.339Z,3.72
2022-09-02T04:34:30.940Z,5.30
2022-09-02T04:36:57.510Z,3.50
2022-09-02T04:39:24.673Z,2.80
2022-09-02T04:41:53.861Z,2.70
2022-09-02T04:44:20.827Z,5.00
2022-09-02T04:46:48.531Z,2.75
2022-09-02T04:49:19.158Z,4.47
2022-09-02T04:51:46.954Z,5.05
2022-09-02T04:54:14.434Z,2.55
2022-09-02T04:56:43.820Z,7.45
2022-09-02T04:59:11.776Z,3.35
2022-09-02T05:01:43.175Z,5.10
2022-09-02T05:04:15.726Z,2.53
2022-09-02T05:06:49.162Z,4.35
2022-09-02T05:09:18.874Z,4.70
2022-09-02T05:11:52.311Z,3.80
2022-09-02T05:14:23.734Z,3.10
2022-09-02T05:16:53.964Z,3.20
2022-09-02T05:19:23.829Z,4.10
2022-09-02T05:21:53.367Z,4.18
2022-09-02T05:24:28.771Z,2.88
2022-09-02T05:26:58.749Z,6.30
2022-09-02T05:29:26.619Z,3.22
2022-09-02T05:31:55.330Z,4.55
2022-09-02T05:34:23.707Z,3.08
2022-09-02T05:36:53.888Z,3.80
2022-09-02T05:39:20.931Z,5.07
2022-09-02T05:41:48.628Z,4.68
2022-09-02T05:44:16.236Z,4.25
2022-09-02T05:46:48.562Z,2.75
2022-09-02T05:49:21.518Z,6.97
2022-09-02T05:52:00.600Z,6.00
2022-09-02T05:54:40.046Z,3.63
2022-09-02T05:57:11.933Z,5.00
2022-09-02T05:59:43.249Z,8.75
2022-09-02T06:02:15.494Z,14.13
2022-09-02T06:04:46.568Z,9.93
2022-09-02T06:07:15.215Z,10.40
2022-09-02T06:09:45.313Z,8.00
2022-09-02T06:12:15.242Z,8.05
2022-09-02T06:14:42.037Z,7.13
2022-09-02T06:17:09.927Z,4.25
2022-09-02T06:19:45.976Z,7.80
2022-09-02T06:22:13.255Z,6.45
2022-09-02T06:24:41.899Z,9.32
2022-09-02T06:27:13.583Z,12.35
2022-09-02T06:29:45.988Z,9.90
2022-09-02T06:32:15.983Z,8.40
2022-09-02T06:34:42.648Z,7.88
2022-09-02T06:37:09.462Z,11.75
2022-09-02T06:39:43.884Z,12.80
2022-09-02T06:42:16.304Z,17.73
2022-09-02T06:45:02.258Z,19.95
2022-09-02T06:47:31.732Z,31.30
2022-09-02T06:49:59.936Z,22.83
2022-09-02T06:52:26.646Z,20.52
2022-09-02T06:54:54.956Z,27.27
2022-09-02T06:57:21.569Z,21.25
2022-09-02T06:59:51.997Z,20.40
2022-09-02T07:02:21.198Z,16.27
2022-09-02T07:05:07.072Z,21.88
2022-09-02T07:07:35.188Z,23.02
2022-09-02T07:10:08.362Z,14.70
2022-09-02T07:12:36.175Z,20.23
2022-09-02T07:15:07.524Z,15.65
2022-09-02T07:17:38.271Z,15.70
2022-09-02T07:20:12.229Z,18.20
2022-09-02T07:22:43.846Z,15.05
2022-09-02T07:25:13.906Z,26.17
2022-09-02T07:27:40.534Z,16.83
2022-09-02T07:30:07.498Z,14.90
2022-09-02T07:32:37.887Z,7.43
2022-09-02T07:35:06.335Z,12.68
2022-09-02T07:37:38.502Z,14.98
2022-09-02T07:40:08.760Z,16.77
2022-09-02T07:42:37.279Z,11.82
2022-09-02T07:45:04.391Z,12.52
2022-09-02T07:47:32.180Z,15.55
2022-09-02T07:50:17.885Z,12.07
2022-09-02T07:52:50.940Z,15.13
2022-09-02T07:55:17.977Z,10.25
2022-09-02T07:57:45.557Z,11.15
2022-09-02T08:00:13.852Z,9.18
2022-09-02T08:02:47.870Z,10.18
2022-09-02T08:05:21.072Z,12.23
2022-09-02T08:07:50.566Z,12.82
2022-09-02T08:10:17.382Z,11.30
2022-09-02T08:12:45.021Z,9.45
2022-09-02T08:15:12.384Z,10.35
2022-09-02T08:17:44.326Z,10.00
2022-09-02T08:20:12.813Z,9.45
2022-09-02T08:22:39.925Z,8.65
2022-09-02T08:25:07.805Z,7.70
2022-09-02T08:27:34.761Z,8.15
2022-09-02T08:30:01.545Z,10.90
2022-09-02T08:32:28.676Z,10.98
2022-09-02T08:34:55.420Z,6.25
2022-09-02T08:37:22.767Z,7.70
2022-09-02T08:39:52.299Z,9.27
2022-09-02T08:42:23.424Z,6.68
2022-09-02T08:44:54.453Z,8.93
2022-09-02T08:47:24.208Z,10.18
2022-09-02T08:49:56.016Z,9.23
2022-09-02T08:52:32.280Z,6.72
2022-09-02T08:54:59.286Z,5.40
2022-09-02T08:57:27.202Z,8.40
2022-09-02T08:59:56.208Z,4.90
2022-09-02T09:02:35.451Z,6.88
2022-09-02T09:05:06.308Z,9.02
2022-09-02T09:07:37.921Z,7.70
2022-09-02T09:10:04.677Z,6.07
2022-09-02T09:12:40.379Z,8.05
2022-09-02T09:15:13.578Z,6.30
2022-09-02T09:17:47.158Z,7.72
2022-09-02T09:20:21.892Z,4.35
2022-09-02T09:22:49.750Z,9.10
2022-09-02T09:25:17.761Z,7.30
2022-09-02T09:27:48.002Z,5.70
2022-09-02T09:30:15.674Z,7.50
2022-09-02T09:32:47.872Z,9.20
2022-09-02T09:35:15.788Z,8.45
2022-09-02T09:37:44.433Z,6.82
2022-09-02T09:40:20.848Z,5.40
2022-09-02T09:42:49.988Z,6.03
2022-09-02T09:45:23.748Z,5.53
2022-09-02T09:48:08.860Z,5.05
2022-09-02T09:50:35.501Z,6.13
2022-09-02T09:53:15.061Z,5.85
2022-09-02T09:55:54.914Z,3.17
2022-09-02T09:58:29.170Z,8.93
2022-09-02T10:01:00.983Z,5.50
2022-09-02T10:03:30.649Z,5.85
2022-09-02T10:06:16.856Z,4.20
2022-09-02T10:08:57.132Z,7.30
2022-09-02T10:11:27.660Z,4.45
2022-09-02T10:14:12.414Z,7.32
2022-09-02T10:16:51.039Z,6.35
2022-09-02T10:19:21.880Z,5.63
2022-09-02T10:21:51.420Z,7.85
2022-09-02T10:24:32.051Z,5.32
2022-09-02T10:26:59.916Z,6.43
2022-09-02T10:29:39.524Z,6.90
2022-09-02T10:32:09.022Z,6.35
2022-09-02T10:34:43.113Z,5.93
2022-09-02T10:37:11.327Z,6.43
2022-09-02T10:39:52.937Z,7.35
2022-09-02T10:42:31.229Z,7.20
2022-09-02T10:45:07.977Z,8.27
2022-09-02T10:47:36.995Z,6.93
2022-09-02T10:50:14.328Z,9.40
2022-09-02T10:52:59.477Z,8.27
2022-09-02T10:55:28.836Z,6.13
2022-09-02T10:57:58.988Z,3.85
2022-09-02T11:00:27.368Z,4.80
2022-09-02T11:03:14.578Z,4.63
2022-09-02T11:08:31.606Z,5.90
2022-09-02T11:11:04.664Z,4.55
2022-09-02T11:13:38.517Z,3.80
2022-09-02T11:18:35.592Z,6.70
2022-09-02T11:21:14.381Z,4.95
2022-09-02T11:23:42.088Z,5.88
2022-09-02T11:26:20.813Z,5.40
2022-09-02T11:28:56.670Z,6.30
2022-09-02T11:31:26.179Z,6.18
2022-09-02T11:33:52.775Z,5.05
2022-09-02T11:36:19.470Z,6.68
2022-09-02T11:38:54.069Z,5.13
2022-09-02T11:41:41.184Z,5.18
2022-09-02T11:44:14.617Z,3.95
2022-09-02T11:46:41.466Z,5.18
2022-09-02T11:49:16.677Z,6.95
2022-09-02T11:52:02.496Z,5.00
2022-09-02T11:54:33.649Z,4.28
2022-09-02T11:57:02.095Z,7.25
2022-09-02T11:59:47.343Z,3.38
2022-09-02T12:02:30.595Z,7.70
2022-09-02T12:05:18.540Z,5.60
2022-09-02T12:07:48.866Z,3.88
2022-09-02T12:10:35.155Z,4.03
2022-09-02T12:13:08.518Z,3.35
2022-09-02T12:15:36.809Z,3.83
2022-09-02T12:18:07.112Z,3.72
2022-09-02T12:20:36.522Z,3.13
2022-09-02T12:23:03.466Z,5.53
2022-09-02T12:25:32.520Z,6.53
2022-09-02T12:28:21.428Z,3.83
2022-09-02T12:30:55.404Z,3.78
2022-09-02T12:33:35.372Z,2.90
2022-09-02T12:36:04.807Z,4.15
2022-09-02T12:38:31.404Z,4.53
2022-09-02T12:41:22.035Z,3.28
2022-09-02T12:44:09.328Z,5.57
2022-09-02T12:46:42.097Z,2.63
2022-09-02T12:49:14.522Z,2.63
2022-09-02T12:52:02.533Z,4.60
2022-09-02T12:54:36.511Z,4.65
2022-09-02T12:59:32.072Z,3.70
2022-09-02T13:02:10.941Z,2.63
2022-09-02T13:04:46.246Z,3.28
2022-09-02T13:07:31.803Z,2.85
2022-09-02T13:10:16.165Z,3.83
2022-09-02T13:12:55.261Z,2.35
2022-09-02T13:15:31.070Z,2.47
2022-09-02T13:18:20.754Z,2.90
2022-09-02T13:21:05.987Z,3.25
2022-09-02T13:23:51.021Z,2.70
2022-09-02T13:26:49.209Z,2.28
2022-09-02T13:29:35.696Z,3.83
2022-09-02T13:32:10.572Z,7.00
2022-09-02T13:34:44.416Z,3.08
2022-09-02T13:39:40.886Z,2.88
2022-09-02T13:42:18.427Z,3.17
2022-09-02T13:44:46.733Z,2.42
2022-09-02T13:47:17.748Z,1.52
2022-09-02T13:49:46.505Z,1.88
2022-09-02T13:52:17.095Z,3.38
2022-09-02T13:54:45.894Z,2.53
2022-09-02T13:57:14.124Z,2.00
2022-09-02T13:59:47.826Z,2.58
2022-09-02T14:02:20.037Z,2.40
2022-09-02T14:04:51.133Z,3.65
2022-09-02T14:07:22.883Z,1.90
2022-09-02T14:09:49.580Z,2.67
2022-09-02T14:12:16.423Z,4.18
2022-09-02T14:14:43.102Z,4.10
2022-09-02T14:17:21.260Z,2.33
2022-09-02T14:19:50.979Z,2.20
2022-09-02T14:22:29.899Z,2.78
2022-09-02T14:24:56.600Z,2.67
2022-09-02T14:27:23.889Z,2.38
2022-09-02T14:29:56.747Z,3.50
2022-09-02T14:32:25.337Z,2.97
2022-09-02T14:35:09.670Z,2.97
2022-09-02T14:37:47.953Z,2.85
2022-09-02T14:40:15.064Z,2.05
2022-09-02T14:42:59.676Z,2.75
2022-09-02T14:45:30.092Z,2.22
2022-09-02T14:47:57.692Z,2.67
2022-09-02T14:50:27.790Z,2.80
2022-09-02T14:52:57.622Z,5.53
2022-09-02T14:55:45.490Z,4.93
2022-09-02T14:58:12.494Z,2.10
2022-09-02T15:00:39.273Z,2.63
2022-09-02T15:03:07.064Z,1.60
2022-09-02T15:05:33.641Z,1.75
2022-09-02T15:08:00.191Z,4.10
2022-09-02T15:10:27.889Z,2.47
2022-09-02T15:12:55.537Z,2.20
2022-09-02T15:15:22.119Z,2.38
2022-09-02T15:17:48.835Z,2.38
2022-09-02T15:20:15.647Z,1.77
2022-09-02T15:22:43.322Z,3.22
2022-09-02T15:25:11.068Z,4.28
2022-09-02T15:27:37.996Z,3.10
2022-09-02T15:30:05.163Z,4.43
2022-09-02T15:32:31.709Z,2.08
2022-09-02T15:34:58.302Z,3.83
2022-09-02T15:37:25.330Z,1.55
2022-09-02T15:39:51.937Z,1.55
2022-09-02T15:42:18.704Z,3.08
2022-09-02T15:44:45.527Z,1.67
2022-09-02T15:47:12.360Z,2.22
2022-09-02T15:49:38.913Z,3.05
2022-09-02T15:52:06.101Z,2.10
2022-09-02T15:54:32.669Z,2.03
2022-09-02T15:56:59.433Z,3.08
2022-09-02T15:59:26.092Z,3.72
2022-09-02T16:02:00.757Z,1.95
2022-09-02T16:04:27.549Z,3.05
2022-09-02T16:06:54.342Z,2.35
2022-09-02T16:09:21.237Z,3.20
2022-09-02T16:11:49.615Z,1.95
2022-09-02T16:14:20.179Z,2.80
2022-09-02T16:16:49.287Z,5.05
2022-09-02T16:19:16.588Z,2.38
2022-09-02T16:21:43.192Z,3.97
2022-09-02T16:24:09.994Z,2.88
2022-09-02T16:26:40.083Z,2.65
2022-09-02T16:29:11.016Z,5.05
2022-09-02T16:31:39.399Z,3.83
2022-09-02T16:34:06.784Z,4.05
2022-09-02T16:36:34.643Z,2.38
2022-09-02T16:39:01.651Z,4.43
2022-09-02T16:41:29.866Z,2.33
2022-09-02T16:43:57.471Z,2.92
2022-09-02T16:46:24.379Z,5.82
2022-09-02T16:48:51.250Z,4.72
2022-09-02T16:51:18.310Z,4.18
2022-09-02T16:53:45.495Z,3.28
2022-09-02T16:56:15.871Z,4.30
2022-09-02T16:58:42.840Z,2.45
2022-09-02T17:01:13.953Z,4.78
2022-09-02T17:03:41.172Z,5.57
2022-09-02T17:06:08.786Z,7.32
2022-09-02T17:08:35.604Z,5.63
2022-09-02T17:11:11.114Z,3.50
2022-09-02T17:13:37.703Z,3.33
2022-09-02T17:16:04.291Z,3.40
2022-09-02T17:18:30.918Z,4.68
2022-09-02T17:21:15.376Z,5.75
2022-09-02T17:23:44.481Z,3.53
2022-09-02T17:26:11.107Z,2.33
2022-09-02T17:28:46.621Z,2.67
2022-09-02T17:31:21.005Z,3.47
2022-09-02T17:33:50.247Z,3.58
2022-09-02T17:36:16.869Z,3.63
2022-09-02T17:38:43.605Z,4.47
2022-09-02T17:41:28.956Z,3.20
2022-09-02T17:43:55.748Z,3.72
2022-09-02T17:46:22.485Z,3.47
2022-09-02T17:49:12.997Z,6.38
2022-09-02T17:51:35.682Z,2.67
2022-09-02T17:54:02.518Z,4.53
2022-09-02T17:56:29.036Z,2.85
2022-09-02T17:59:08.525Z,2.40
2022-09-02T18:01:38.034Z,3.08
2022-09-02T18:04:05.212Z,3.10
2022-09-02T18:06:35.040Z,2.95
2022-09-02T18:09:02.630Z,3.25
2022-09-02T18:11:29.914Z,5.25
2022-09-02T18:14:02.619Z,2.92
2022-09-02T18:16:32.366Z,3.78
2022-09-02T18:19:13.695Z,5.78
2022-09-02T18:21:47.515Z,5.93
2022-09-02T18:24:18.615Z,4.93
2022-09-02T18:26:45.821Z,4.63
2022-09-02T18:29:16.233Z,2.40
2022-09-02T18:31:49.411Z,3.70
2022-09-02T18:34:16.008Z,5.25
2022-09-02T18:36:51.383Z,2.13
2022-09-02T18:39:21.659Z,2.95
2022-09-02T18:42:06.726Z,3.17
2022-09-02T18:44:51.799Z,4.03
2022-09-02T18:47:24.573Z,8.93
2022-09-02T18:49:52.769Z,4.15
2022-09-02T18:52:24.834Z,4.63
2022-09-02T18:54:56.049Z,3.20
2022-09-02T18:57:22.616Z,6.70
2022-09-02T18:59:59.328Z,2.63
2022-09-02T19:02:26.086Z,2.55
2022-09-02T19:04:52.833Z,3.67
2022-09-02T19:07:38.931Z,3.95
2022-09-02T19:10:06.199Z,3.00
2022-09-02T19:12:34.968Z,5.47
2022-09-02T19:15:02.062Z,2.88
2022-09-02T19:17:28.729Z,9.52
2022-09-02T19:19:55.282Z,3.88
2022-09-02T19:22:24.475Z,4.85
2022-09-02T19:24:57.267Z,2.97
2022-09-02T19:27:25.678Z,4.72
2022-09-02T19:29:54.411Z,4.90
2022-09-02T19:32:29.975Z,5.75
2022-09-02T19:35:00.061Z,3.67
2022-09-02T19:37:26.712Z,4.85
2022-09-02T19:39:54.167Z,4.72
2022-09-02T19:42:24.306Z,6.40
2022-09-02T19:44:51.092Z,3.70
2022-09-02T19:50:06.051Z,6.90
2022-09-02T19:52:37.195Z,5.57
2022-09-02T19:55:04.089Z,5.88
2022-09-02T19:57:30.683Z,3.53
2022-09-02T19:59:57.368Z,3.08
2022-09-02T20:02:23.968Z,6.22
2022-09-02T20:04:50.563Z,6.90
2022-09-02T20:07:17.255Z,2.38
2022-09-02T20:09:43.956Z,5.68
2022-09-02T20:12:16.898Z,3.35
2022-09-02T20:14:44.608Z,3.05
2022-09-02T20:17:14.749Z,3.72
2022-09-02T20:19:42.338Z,4.20
2022-09-02T20:22:12.956Z,4.38
2022-09-02T20:24:40.131Z,5.85
2022-09-02T20:27:06.794Z,3.85
2022-09-02T20:29:52.283Z,4.85
2022-09-02T20:32:31.876Z,4.03
2022-09-02T20:35:11.610Z,4.32
2022-09-02T20:37:54.438Z,4.78
2022-09-02T20:40:34.745Z,2.97
2022-09-02T20:43:01.373Z,4.20
2022-09-02T20:45:32.498Z,5.13
2022-09-02T20:48:11.122Z,4.72
2022-09-02T20:50:42.541Z,5.22
2022-09-02T20:53:24.140Z,5.13
2022-09-02T20:56:02.049Z,7.20
2022-09-02T20:58:31.659Z,2.50
2022-09-02T21:01:06.799Z,3.60
2022-09-02T21:03:40.992Z,5.35
2022-09-02T21:06:10.976Z,3.97
2022-09-02T21:08:42.058Z,2.58
2022-09-02T21:11:13.079Z,3.95
2022-09-02T21:13:58.809Z,3.75
2022-09-02T21:16:28.309Z,5.65
2022-09-02T21:18:59.038Z,1.83
2022-09-02T21:21:44.008Z,2.67
2022-09-02T21:24:26.097Z,5.32
2022-09-02T21:27:14.393Z,4.18
2022-09-02T21:29:47.073Z,3.70
2022-09-02T21:32:25.279Z,2.67
2022-09-02T21:34:51.943Z,3.83
2022-09-02T21:37:20.704Z,5.03
2022-09-02T21:39:52.819Z,7.07
2022-09-02T21:42:41.447Z,3.08
2022-09-02T21:45:08.557Z,6.38
2022-09-02T21:47:36.644Z,3.38
2022-09-02T21:50:06.233Z,2.30
2022-09-02T21:52:35.578Z,2.13
2022-09-02T21:55:08.286Z,3.90
2022-09-02T21:57:38.375Z,3.25
2022-09-02T22:00:09.692Z,9.23
2022-09-02T22:03:04.179Z,4.05
2022-09-02T22:05:43.234Z,3.00
2022-09-02T22:08:11.130Z,3.53
2022-09-02T22:10:47.788Z,4.18
2022-09-02T22:13:14.637Z,3.08
2022-09-02T22:15:58.298Z,4.25
2022-09-02T22:18:39.613Z,2.72
2022-09-02T22:21:17.356Z,2.67
2022-09-02T22:23:44.191Z,3.85
2022-09-02T22:26:20.060Z,4.63
2022-09-02T22:28:48.621Z,2.70
2022-09-02T22:31:16.315Z,2.65
2022-09-02T22:33:49.104Z,3.00
2022-09-02T22:36:38.446Z,2.20
2022-09-02T22:39:05.592Z,5.05
2022-09-02T22:41:35.159Z,1.92
2022-09-02T22:44:01.863Z,3.13
2022-09-02T22:46:49.803Z,2.58
2022-09-02T22:49:37.531Z,3.33
2022-09-02T22:52:43.997Z,3.13
2022-09-02T22:55:24.185Z,3.58
2022-09-02T22:58:02.800Z,4.78
2022-09-02T23:00:35.561Z,4.03
2022-09-02T23:03:14.134Z,6.15
2022-09-02T23:05:56.014Z,6.70
2022-09-02T23:08:22.922Z,1.77
2022-09-02T23:11:11.930Z,4.57
2022-09-02T23:13:38.474Z,2.60
2022-09-02T23:16:11.925Z,3.03
2022-09-02T23:18:57.359Z,3.28
2022-09-02T23:21:47.618Z,3.63
2022-09-02T23:24:14.256Z,5.60
2022-09-02T23:26:58.165Z,3.60
2022-09-02T23:29:27.914Z,4.00
2022-09-02T23:32:00.847Z,4.38
2022-09-02T23:34:48.692Z,3.67
2022-09-02T23:37:15.212Z,4.00
2022-09-02T23:40:00.899Z,3.35
2022-09-02T23:42:28.030Z,3.75
2022-09-02T23:45:00.113Z,4.47
2022-09-02T23:47:26.820Z,3.88
2022-09-02T23:50:08.749Z,2.55
2022-09-02T23:52:42.959Z,5.05
2022-09-02T23:55:09.605Z,5.28
2022-09-02T23:57:54.451Z,2.85
